sensor_id;sensor_type;location;lat;lon;timestamp;pressure;altitude;pressure_sealevel;temperature;humidity
42761;BME280;31672;47.638;19.026;2023-02-22T00:03:25;100081.69;;;6.35;82.78
42761;BME280;31672;47.638;19.026;2023-02-22T00:08:35;100070.03;;;6.37;83.02
42761;BME280;31672;47.638;19.026;2023-02-22T00:13:38;100066.56;;;6.37;82.87
42761;BME280;31672;47.638;19.026;2023-02-22T00:18:41;100070.59;;;6.31;82.81
42761;BME280;31672;47.638;19.026;2023-02-22T00:23:46;100063.25;;;6.25;83.17
42761;BME280;31672;47.638;19.026;2023-02-22T00:28:52;100071.44;;;6.32;84.19
42761;BME280;31672;47.638;19.026;2023-02-22T00:33:55;100073.66;;;6.36;83.99
42761;BME280;31672;47.638;19.026;2023-02-22T00:38:58;100079.44;;;6.40;83.94
42761;BME280;31672;47.638;19.026;2023-02-22T00:44:01;100087.09;;;6.43;84.00
42761;BME280;31672;47.638;19.026;2023-02-22T00:49:05;100079.69;;;6.56;84.21
42761;BME280;31672;47.638;19.026;2023-02-22T00:54:08;100078.22;;;6.71;84.14
42761;BME280;31672;47.638;19.026;2023-02-22T00:59:12;100074.91;;;6.97;84.18
42761;BME280;31672;47.638;19.026;2023-02-22T01:04:15;100075.47;;;7.18;83.77
42761;BME280;31672;47.638;19.026;2023-02-22T01:09:20;100075.34;;;7.38;82.79
42761;BME280;31672;47.638;19.026;2023-02-22T01:14:26;100068.53;;;7.53;82.29
42761;BME280;31672;47.638;19.026;2023-02-22T01:19:29;100064.00;;;7.63;81.66
42761;BME280;31672;47.638;19.026;2023-02-22T01:24:33;100068.69;;;7.69;81.22
42761;BME280;31672;47.638;19.026;2023-02-22T01:29:36;100070.03;;;7.73;80.84
42761;BME280;31672;47.638;19.026;2023-02-22T01:34:41;100070.03;;;7.73;80.54
42761;BME280;31672;47.638;19.026;2023-02-22T01:39:44;100060.19;;;7.84;80.65
42761;BME280;31672;47.638;19.026;2023-02-22T01:50:36;100052.84;;;7.95;79.86
42761;BME280;31672;47.638;19.026;2023-02-22T01:55:41;100054.50;;;7.96;79.42
42761;BME280;31672;47.638;19.026;2023-02-22T02:00:45;100058.97;;;7.96;79.72
42761;BME280;31672;47.638;19.026;2023-02-22T02:05:51;100066.06;;;7.95;79.46
42761;BME280;31672;47.638;19.026;2023-02-22T02:10:56;100063.88;;;7.91;79.56
42761;BME280;31672;47.638;19.026;2023-02-22T02:16:00;100057.94;;;7.89;79.71
42761;BME280;31672;47.638;19.026;2023-02-22T02:27:00;100052.41;;;7.82;79.94
42761;BME280;31672;47.638;19.026;2023-02-22T02:43:31;100055.84;;;7.74;79.84
42761;BME280;31672;47.638;19.026;2023-02-22T02:48:40;100051.84;;;7.70;80.18
42761;BME280;31672;47.638;19.026;2023-02-22T02:53:46;100056.75;;;7.65;80.04
42761;BME280;31672;47.638;19.026;2023-02-22T02:58:52;100059.72;;;7.62;80.03
42761;BME280;31672;47.638;19.026;2023-02-22T03:04:27;100052.38;;;7.56;80.22
42761;BME280;31672;47.638;19.026;2023-02-22T03:20:39;100053.50;;;7.71;80.44
42761;BME280;31672;47.638;19.026;2023-02-22T03:25:57;100057.50;;;7.75;80.71
42761;BME280;31672;47.638;19.026;2023-02-22T03:31:21;100052.88;;;7.77;80.48
42761;BME280;31672;47.638;19.026;2023-02-22T03:36:29;100050.22;;;7.77;80.38
42761;BME280;31672;47.638;19.026;2023-02-22T03:41:37;100055.69;;;7.76;80.31
42761;BME280;31672;47.638;19.026;2023-02-22T03:46:42;100052.81;;;7.69;80.24
42761;BME280;31672;47.638;19.026;2023-02-22T03:51:46;100051.91;;;7.61;80.48
42761;BME280;31672;47.638;19.026;2023-02-22T03:56:56;100060.16;;;7.58;81.00
42761;BME280;31672;47.638;19.026;2023-02-22T04:02:00;100060.16;;;7.58;80.81
42761;BME280;31672;47.638;19.026;2023-02-22T04:07:03;100072.84;;;7.54;80.94
42761;BME280;31672;47.638;19.026;2023-02-22T04:12:07;100076.91;;;7.48;81.31
42761;BME280;31672;47.638;19.026;2023-02-22T04:17:10;100067.50;;;7.46;81.26
42761;BME280;31672;47.638;19.026;2023-02-22T04:22:13;100077.84;;;7.39;81.47
42761;BME280;31672;47.638;19.026;2023-02-22T04:27:16;100074.25;;;7.31;81.51
42761;BME280;31672;47.638;19.026;2023-02-22T04:32:19;100085.16;;;7.28;82.04
42761;BME280;31672;47.638;19.026;2023-02-22T04:37:22;100086.41;;;7.23;81.94
42761;BME280;31672;47.638;19.026;2023-02-22T04:42:25;100086.00;;;7.01;81.37
42761;BME280;31672;47.638;19.026;2023-02-22T04:47:28;100079.44;;;6.77;81.71
42761;BME280;31672;47.638;19.026;2023-02-22T04:52:31;100078.53;;;6.59;82.16
42761;BME280;31672;47.638;19.026;2023-02-22T04:57:34;100067.97;;;6.59;83.71
42761;BME280;31672;47.638;19.026;2023-02-22T05:02:40;100066.00;;;6.70;85.21
42761;BME280;31672;47.638;19.026;2023-02-22T05:07:43;100075.63;;;6.89;85.70
42761;BME280;31672;47.638;19.026;2023-02-22T05:12:46;100086.31;;;6.97;85.12
42761;BME280;31672;47.638;19.026;2023-02-22T05:17:50;100089.28;;;6.85;84.32
42761;BME280;31672;47.638;19.026;2023-02-22T05:22:55;100088.28;;;6.58;84.14
42761;BME280;31672;47.638;19.026;2023-02-22T05:28:02;100090.56;;;6.43;85.65
42761;BME280;31672;47.638;19.026;2023-02-22T05:33:06;100088.34;;;6.39;86.29
42761;BME280;31672;47.638;19.026;2023-02-22T05:38:12;100091.00;;;6.39;86.51
42761;BME280;31672;47.638;19.026;2023-02-22T05:43:17;100108.06;;;6.35;87.28
42761;BME280;31672;47.638;19.026;2023-02-22T05:48:20;100124.88;;;6.34;87.25
42761;BME280;31672;47.638;19.026;2023-02-22T05:53:24;100135.06;;;6.19;86.62
42761;BME280;31672;47.638;19.026;2023-02-22T05:58:27;100143.44;;;5.95;86.29
42761;BME280;31672;47.638;19.026;2023-02-22T06:03:30;100165.88;;;5.80;86.57
42761;BME280;31672;47.638;19.026;2023-02-22T06:08:33;100153.94;;;5.76;86.93
42761;BME280;31672;47.638;19.026;2023-02-22T06:13:36;100168.34;;;5.81;87.53
42761;BME280;31672;47.638;19.026;2023-02-22T06:18:39;100172.69;;;5.92;87.60
42761;BME280;31672;47.638;19.026;2023-02-22T06:23:42;100167.97;;;6.05;88.16
42761;BME280;31672;47.638;19.026;2023-02-22T06:28:46;100171.44;;;6.25;88.25
42761;BME280;31672;47.638;19.026;2023-02-22T06:33:49;100173.91;;;6.46;88.44
42761;BME280;31672;47.638;19.026;2023-02-22T06:38:52;100172.75;;;6.68;88.34
42761;BME280;31672;47.638;19.026;2023-02-22T06:43:55;100171.81;;;6.96;88.49
42761;BME280;31672;47.638;19.026;2023-02-22T06:48:58;100178.91;;;7.23;87.79
42761;BME280;31672;47.638;19.026;2023-02-22T06:54:02;100181.63;;;7.41;87.27
42761;BME280;31672;47.638;19.026;2023-02-22T06:59:06;100182.31;;;7.61;86.60
42761;BME280;31672;47.638;19.026;2023-02-22T07:04:09;100176.59;;;7.84;85.91
42761;BME280;31672;47.638;19.026;2023-02-22T07:09:15;100174.06;;;8.10;85.40
42761;BME280;31672;47.638;19.026;2023-02-22T07:14:18;100170.06;;;8.31;85.09
42761;BME280;31672;47.638;19.026;2023-02-22T07:19:21;100174.75;;;8.55;84.05
42761;BME280;31672;47.638;19.026;2023-02-22T07:24:25;100168.94;;;8.78;83.37
42761;BME280;31672;47.638;19.026;2023-02-22T07:29:30;100168.53;;;8.99;82.41
42761;BME280;31672;47.638;19.026;2023-02-22T07:34:33;100169.97;;;9.19;81.08
42761;BME280;31672;47.638;19.026;2023-02-22T07:39:36;100168.88;;;9.38;80.17
42761;BME280;31672;47.638;19.026;2023-02-22T07:44:40;100167.50;;;10.09;79.86
42761;BME280;31672;47.638;19.026;2023-02-22T07:49:43;100159.59;;;11.67;76.69
42761;BME280;31672;47.638;19.026;2023-02-22T07:54:46;100151.22;;;12.92;70.21
42761;BME280;31672;47.638;19.026;2023-02-22T07:59:49;100146.53;;;13.74;66.24
42761;BME280;31672;47.638;19.026;2023-02-22T08:04:52;100150.13;;;14.31;62.32
42761;BME280;31672;47.638;19.026;2023-02-22T08:09:55;100153.66;;;14.87;61.72
42761;BME280;31672;47.638;19.026;2023-02-22T08:14:58;100155.31;;;15.30;59.08
42761;BME280;31672;47.638;19.026;2023-02-22T08:20:02;100145.28;;;15.58;56.66
42761;BME280;31672;47.638;19.026;2023-02-22T08:25:05;100143.09;;;15.68;55.79
42761;BME280;31672;47.638;19.026;2023-02-22T08:30:22;100138.22;;;16.51;54.60
42761;BME280;31672;47.638;19.026;2023-02-22T08:35:25;100129.41;;;17.22;52.51
42761;BME280;31672;47.638;19.026;2023-02-22T08:40:33;100134.78;;;17.09;50.75
42761;BME280;31672;47.638;19.026;2023-02-22T08:45:36;100139.88;;;16.32;51.53
42761;BME280;31672;47.638;19.026;2023-02-22T08:50:40;100150.75;;;15.23;52.77
42761;BME280;31672;47.638;19.026;2023-02-22T08:55:44;100155.16;;;14.68;55.32
42761;BME280;31672;47.638;19.026;2023-02-22T09:00:47;100159.34;;;14.50;55.49
42761;BME280;31672;47.638;19.026;2023-02-22T09:05:50;100157.41;;;14.15;56.76
42761;BME280;31672;47.638;19.026;2023-02-22T09:10:53;100154.97;;;14.20;57.34
42761;BME280;31672;47.638;19.026;2023-02-22T09:15:57;100158.34;;;14.85;56.85
42761;BME280;31672;47.638;19.026;2023-02-22T09:20:59;100160.00;;;15.21;55.26
42761;BME280;31672;47.638;19.026;2023-02-22T09:26:03;100157.53;;;14.85;54.58
42761;BME280;31672;47.638;19.026;2023-02-22T09:31:07;100161.25;;;14.56;55.96
42761;BME280;31672;47.638;19.026;2023-02-22T09:36:10;100149.34;;;14.93;56.00
42761;BME280;31672;47.638;19.026;2023-02-22T09:41:19;100156.16;;;15.37;55.30
42761;BME280;31672;47.638;19.026;2023-02-22T09:46:38;100155.31;;;15.30;53.85
42761;BME280;31672;47.638;19.026;2023-02-22T09:57:03;100146.88;;;14.35;54.75
42761;BME280;31672;47.638;19.026;2023-02-22T10:02:25;100147.09;;;13.91;56.62
42761;BME280;31672;47.638;19.026;2023-02-22T10:07:50;100153.63;;;13.67;57.32
42761;BME280;31672;47.638;19.026;2023-02-22T10:18:54;100150.84;;;13.24;58.31
42761;BME280;31672;47.638;19.026;2023-02-22T10:35:32;100133.38;;;12.92;59.60
42761;BME280;31672;47.638;19.026;2023-02-22T10:40:36;100133.59;;;12.91;60.41
42761;BME280;31672;47.638;19.026;2023-02-22T10:45:41;100125.59;;;12.91;60.63
42761;BME280;31672;47.638;19.026;2023-02-22T10:50:45;100122.72;;;12.92;60.52
42761;BME280;31672;47.638;19.026;2023-02-22T10:56:19;100121.59;;;13.01;60.97
42761;BME280;31672;47.638;19.026;2023-02-22T11:01:41;100118.75;;;13.03;60.58
42761;BME280;31672;47.638;19.026;2023-02-22T11:07:06;100118.28;;;12.99;60.50
42761;BME280;31672;47.638;19.026;2023-02-22T11:12:17;100108.47;;;12.85;60.73
42761;BME280;31672;47.638;19.026;2023-02-22T11:17:31;100106.25;;;12.89;61.21
42761;BME280;31672;47.638;19.026;2023-02-22T11:22:40;100101.19;;;12.94;61.16
42761;BME280;31672;47.638;19.026;2023-02-22T11:27:44;100097.44;;;13.03;61.18
42761;BME280;31672;47.638;19.026;2023-02-22T11:33:20;100085.81;;;13.10;61.23
42761;BME280;31672;47.638;19.026;2023-02-22T11:38:29;100082.78;;;13.13;60.83
42761;BME280;31672;47.638;19.026;2023-02-22T11:43:33;100077.69;;;13.19;60.79
42761;BME280;31672;47.638;19.026;2023-02-22T11:48:53;100084.41;;;13.29;60.65
42761;BME280;31672;47.638;19.026;2023-02-22T11:54:41;100082.56;;;13.30;60.53
42761;BME280;31672;47.638;19.026;2023-02-22T12:11:31;100072.66;;;13.24;60.12
42761;BME280;31672;47.638;19.026;2023-02-22T12:22:04;100064.59;;;13.02;60.13
42761;BME280;31672;47.638;19.026;2023-02-22T12:28:06;100069.75;;;12.89;60.86
42761;BME280;31672;47.638;19.026;2023-02-22T12:32:54;100062.59;;;12.75;61.21
42761;BME280;31672;47.638;19.026;2023-02-22T12:38:56;100059.72;;;12.76;61.50
42761;BME280;31672;47.638;19.026;2023-02-22T12:44:01;100057.16;;;12.83;61.71
42761;BME280;31672;47.638;19.026;2023-02-22T12:49:37;100045.09;;;12.87;61.33
42761;BME280;31672;47.638;19.026;2023-02-22T12:54:53;100048.66;;;12.94;61.32
42761;BME280;31672;47.638;19.026;2023-02-22T13:00:24;100038.84;;;12.95;60.91
42761;BME280;31672;47.638;19.026;2023-02-22T13:05:38;100035.72;;;12.91;60.74
42761;BME280;31672;47.638;19.026;2023-02-22T13:21:57;100032.16;;;13.20;60.26
42761;BME280;31672;47.638;19.026;2023-02-22T13:27:09;100037.13;;;13.23;59.62
42761;BME280;31672;47.638;19.026;2023-02-22T13:53:52;100041.16;;;12.83;58.76
42761;BME280;31672;47.638;19.026;2023-02-22T13:59:00;100041.09;;;12.62;59.28
42761;BME280;31672;47.638;19.026;2023-02-22T14:09:54;100048.13;;;12.10;59.79
42761;BME280;31672;47.638;19.026;2023-02-22T14:15:16;100050.56;;;11.82;60.28
42761;BME280;31672;47.638;19.026;2023-02-22T14:25:42;100057.75;;;11.50;60.86
42761;BME280;31672;47.638;19.026;2023-02-22T14:30:45;100058.69;;;11.35;61.12
42761;BME280;31672;47.638;19.026;2023-02-22T14:35:49;100057.75;;;11.28;61.62
42761;BME280;31672;47.638;19.026;2023-02-22T14:40:53;100056.78;;;11.20;61.55
42761;BME280;31672;47.638;19.026;2023-02-22T14:45:59;100049.34;;;11.16;62.02
42761;BME280;31672;47.638;19.026;2023-02-22T14:51:22;100048.66;;;11.14;62.65
42761;BME280;31672;47.638;19.026;2023-02-22T14:56:41;100052.00;;;11.16;63.01
42761;BME280;31672;47.638;19.026;2023-02-22T15:02:10;100054.66;;;11.16;63.05
42761;BME280;31672;47.638;19.026;2023-02-22T15:07:28;100052.34;;;11.13;63.15
42761;BME280;31672;47.638;19.026;2023-02-22T15:12:32;100048.03;;;11.12;63.15
42761;BME280;31672;47.638;19.026;2023-02-22T15:17:35;100051.84;;;11.09;63.21
42761;BME280;31672;47.638;19.026;2023-02-22T15:22:38;100050.38;;;11.07;63.29
42761;BME280;31672;47.638;19.026;2023-02-22T15:27:44;100052.09;;;10.99;63.64
42761;BME280;31672;47.638;19.026;2023-02-22T15:32:49;100048.47;;;10.92;63.87
42761;BME280;31672;47.638;19.026;2023-02-22T15:43:20;100048.84;;;10.81;64.01
42761;BME280;31672;47.638;19.026;2023-02-22T15:48:27;100047.72;;;10.76;63.97
42761;BME280;31672;47.638;19.026;2023-02-22T15:53:46;100041.44;;;10.68;64.27
42761;BME280;31672;47.638;19.026;2023-02-22T15:59:18;100043.28;;;10.60;64.50
42761;BME280;31672;47.638;19.026;2023-02-22T16:04:26;100046.78;;;10.52;64.58
42761;BME280;31672;47.638;19.026;2023-02-22T16:09:31;100045.00;;;10.44;64.72
42761;BME280;31672;47.638;19.026;2023-02-22T16:19:40;100058.97;;;10.30;65.15
42761;BME280;31672;47.638;19.026;2023-02-22T16:24:44;100057.00;;;10.24;65.41
42761;BME280;31672;47.638;19.026;2023-02-22T16:35:28;100053.50;;;10.07;66.01
42761;BME280;31672;47.638;19.026;2023-02-22T16:40:38;100064.97;;;10.00;66.20
42761;BME280;31672;47.638;19.026;2023-02-22T16:45:42;100062.97;;;9.93;66.19
42761;BME280;31672;47.638;19.026;2023-02-22T16:50:47;100071.78;;;9.86;66.36
42761;BME280;31672;47.638;19.026;2023-02-22T16:55:58;100075.28;;;9.78;66.69
42761;BME280;31672;47.638;19.026;2023-02-22T17:01:02;100081.56;;;9.69;66.91
42761;BME280;31672;47.638;19.026;2023-02-22T17:06:05;100080.22;;;9.57;67.29
42761;BME280;31672;47.638;19.026;2023-02-22T17:11:11;100086.19;;;9.43;67.95
42761;BME280;31672;47.638;19.026;2023-02-22T17:16:16;100085.47;;;9.32;68.04
42761;BME280;31672;47.638;19.026;2023-02-22T17:21:20;100088.78;;;9.18;68.45
42761;BME280;31672;47.638;19.026;2023-02-22T17:26:23;100091.19;;;9.03;68.83
42761;BME280;31672;47.638;19.026;2023-02-22T17:31:28;100088.34;;;8.89;69.10
42761;BME280;31672;47.638;19.026;2023-02-22T17:36:34;100082.44;;;8.69;69.58
42761;BME280;31672;47.638;19.026;2023-02-22T17:41:39;100081.19;;;8.47;69.68
42761;BME280;31672;47.638;19.026;2023-02-22T17:46:42;100086.28;;;8.22;70.50
42761;BME280;31672;47.638;19.026;2023-02-22T17:51:47;100089.72;;;7.97;71.30
42761;BME280;31672;47.638;19.026;2023-02-22T17:56:52;100094.22;;;7.78;71.75
42761;BME280;31672;47.638;19.026;2023-02-22T18:01:55;100092.41;;;7.61;72.73
42761;BME280;31672;47.638;19.026;2023-02-22T18:06:58;100100.44;;;7.51;73.37
42761;BME280;31672;47.638;19.026;2023-02-22T18:12:01;100094.91;;;7.45;74.05
42761;BME280;31672;47.638;19.026;2023-02-22T18:17:04;100090.22;;;7.39;74.20
42761;BME280;31672;47.638;19.026;2023-02-22T18:22:07;100091.94;;;7.30;74.52
42761;BME280;31672;47.638;19.026;2023-02-22T18:27:10;100087.84;;;7.18;74.75
42761;BME280;31672;47.638;19.026;2023-02-22T18:32:13;100092.81;;;7.03;74.76
42761;BME280;31672;47.638;19.026;2023-02-22T18:37:16;100094.97;;;6.90;75.19
42761;BME280;31672;47.638;19.026;2023-02-22T18:42:23;100099.34;;;6.71;75.33
42761;BME280;31672;47.638;19.026;2023-02-22T18:47:26;100105.53;;;6.53;75.47
42761;BME280;31672;47.638;19.026;2023-02-22T18:52:29;100100.31;;;6.33;75.73
42761;BME280;31672;47.638;19.026;2023-02-22T18:57:33;100103.53;;;6.17;76.50
42761;BME280;31672;47.638;19.026;2023-02-22T19:02:37;100105.06;;;6.10;77.14
42761;BME280;31672;47.638;19.026;2023-02-22T19:07:40;100107.44;;;6.13;77.85
42761;BME280;31672;47.638;19.026;2023-02-22T19:12:43;100102.28;;;6.22;78.32
42761;BME280;31672;47.638;19.026;2023-02-22T19:17:49;100107.41;;;6.33;78.36
42761;BME280;31672;47.638;19.026;2023-02-22T19:22:52;100106.09;;;6.47;78.46
42761;BME280;31672;47.638;19.026;2023-02-22T19:27:55;100108.56;;;6.58;78.31
42761;BME280;31672;47.638;19.026;2023-02-22T19:32:58;100118.41;;;6.65;78.11
42761;BME280;31672;47.638;19.026;2023-02-22T19:38:04;100114.22;;;6.73;77.71
42761;BME280;31672;47.638;19.026;2023-02-22T19:43:08;100128.50;;;6.80;77.25
42761;BME280;31672;47.638;19.026;2023-02-22T19:48:11;100126.41;;;6.83;77.08
42761;BME280;31672;47.638;19.026;2023-02-22T19:53:16;100129.59;;;6.87;76.46
42761;BME280;31672;47.638;19.026;2023-02-22T19:58:19;100127.50;;;6.90;76.32
42761;BME280;31672;47.638;19.026;2023-02-22T20:03:23;100129.00;;;6.93;76.04
42761;BME280;31672;47.638;19.026;2023-02-22T20:08:28;100129.69;;;6.95;75.86
42761;BME280;31672;47.638;19.026;2023-02-22T20:13:31;100135.66;;;6.97;75.74
42761;BME280;31672;47.638;19.026;2023-02-22T20:18:35;100125.09;;;6.97;75.43
42761;BME280;31672;47.638;19.026;2023-02-22T20:23:38;100125.09;;;6.97;75.27
42761;BME280;31672;47.638;19.026;2023-02-22T20:28:43;100120.66;;;6.97;75.19
42761;BME280;31672;47.638;19.026;2023-02-22T20:33:53;100126.75;;;6.98;75.12
42761;BME280;31672;47.638;19.026;2023-02-22T20:38:58;100121.75;;;6.95;75.15
42761;BME280;31672;47.638;19.026;2023-02-22T20:44:02;100121.75;;;6.95;75.36
42761;BME280;31672;47.638;19.026;2023-02-22T20:49:13;100123.72;;;6.93;75.22
42761;BME280;31672;47.638;19.026;2023-02-22T20:54:17;100122.34;;;6.89;75.22
42761;BME280;31672;47.638;19.026;2023-02-22T20:59:20;100124.97;;;6.89;75.38
42761;BME280;31672;47.638;19.026;2023-02-22T21:04:23;100130.56;;;6.86;75.37
42761;BME280;31672;47.638;19.026;2023-02-22T21:09:27;100131.84;;;6.82;75.41
42761;BME280;31672;47.638;19.026;2023-02-22T21:14:30;100137.13;;;6.82;75.42
42761;BME280;31672;47.638;19.026;2023-02-22T21:19:34;100141.56;;;6.81;75.42
42761;BME280;31672;47.638;19.026;2023-02-22T21:24:38;100132.66;;;6.82;75.59
42761;BME280;31672;47.638;19.026;2023-02-22T21:29:41;100131.84;;;6.82;75.52
42761;BME280;31672;47.638;19.026;2023-02-22T21:34:44;100135.72;;;6.78;75.54
42761;BME280;31672;47.638;19.026;2023-02-22T21:39:48;100146.44;;;6.76;75.87
42761;BME280;31672;47.638;19.026;2023-02-22T21:44:51;100131.44;;;6.77;75.82
42761;BME280;31672;47.638;19.026;2023-02-22T21:49:57;100142.97;;;6.76;76.01
42761;BME280;31672;47.638;19.026;2023-02-22T21:55:00;100137.69;;;6.76;76.07
42761;BME280;31672;47.638;19.026;2023-02-22T22:00:06;100144.63;;;6.77;75.98
42761;BME280;31672;47.638;19.026;2023-02-22T22:05:20;100136.72;;;6.77;75.87
42761;BME280;31672;47.638;19.026;2023-02-22T22:10:35;100141.00;;;6.78;75.99
42761;BME280;31672;47.638;19.026;2023-02-22T22:15:39;100127.81;;;6.78;75.72
42761;BME280;31672;47.638;19.026;2023-02-22T22:20:42;100133.25;;;6.76;75.51
42761;BME280;31672;47.638;19.026;2023-02-22T22:25:46;100132.25;;;6.77;75.47
42761;BME280;31672;47.638;19.026;2023-02-22T22:30:52;100137.69;;;6.76;75.36
42761;BME280;31672;47.638;19.026;2023-02-22T22:35:56;100140.63;;;6.73;75.25
42761;BME280;31672;47.638;19.026;2023-02-22T22:40:59;100137.75;;;6.66;75.39
42761;BME280;31672;47.638;19.026;2023-02-22T22:46:05;100138.16;;;6.61;75.55
42761;BME280;31672;47.638;19.026;2023-02-22T22:51:12;100133.63;;;6.54;75.40
42761;BME280;31672;47.638;19.026;2023-02-22T22:56:23;100148.91;;;6.50;75.56
42761;BME280;31672;47.638;19.026;2023-02-22T23:01:29;100145.84;;;6.45;75.75
42761;BME280;31672;47.638;19.026;2023-02-22T23:06:42;100142.78;;;6.40;75.58
42761;BME280;31672;47.638;19.026;2023-02-22T23:11:54;100150.31;;;6.35;75.70
42761;BME280;31672;47.638;19.026;2023-02-22T23:16:59;100150.88;;;6.29;75.77
42761;BME280;31672;47.638;19.026;2023-02-22T23:22:06;100151.44;;;6.23;75.74
42761;BME280;31672;47.638;19.026;2023-02-22T23:27:09;100144.66;;;6.10;75.82
42761;BME280;31672;47.638;19.026;2023-02-22T23:32:12;100149.38;;;5.97;75.90
42761;BME280;31672;47.638;19.026;2023-02-22T23:37:16;100147.25;;;5.81;76.13
42761;BME280;31672;47.638;19.026;2023-02-22T23:42:22;100157.38;;;5.67;76.59
42761;BME280;31672;47.638;19.026;2023-02-22T23:47:25;100159.59;;;5.52;76.81
42761;BME280;31672;47.638;19.026;2023-02-22T23:52:33;100153.72;;;5.38;77.36
42761;BME280;31672;47.638;19.026;2023-02-22T23:57:39;100159.97;;;5.28;77.76
